sensor_id;sensor_type;location;lat;lon;timestamp;P1;durP1;ratioP1;P2;durP2;ratioP2
61200;SDS011;47065;52.898;6.992;2023-04-25T00:02:01;25.02;;;5.88;;
61200;SDS011;47065;52.898;6.992;2023-04-25T00:04:28;32.15;;;5.93;;
61200;SDS011;47065;52.898;6.992;2023-04-25T00:06:55;28.08;;;7.18;;
61200;SDS011;47065;52.898;6.992;2023-04-25T00:09:21;21.30;;;4.63;;
61200;SDS011;47065;52.898;6.992;2023-04-25T00:11:47;22.48;;;4.78;;
61200;SDS011;47065;52.898;6.992;2023-04-25T00:14:13;32.10;;;5.78;;
61200;SDS011;47065;52.898;6.992;2023-04-25T00:16:39;14.45;;;4.38;;
61200;SDS011;47065;52.898;6.992;2023-04-25T00:19:06;17.23;;;6.20;;
61200;SDS011;47065;52.898;6.992;2023-04-25T00:21:32;25.88;;;6.97;;
61200;SDS011;47065;52.898;6.992;2023-04-25T00:23:58;21.52;;;5.22;;
61200;SDS011;47065;52.898;6.992;2023-04-25T00:26:25;15.00;;;4.55;;
61200;SDS011;47065;52.898;6.992;2023-04-25T00:28:50;19.35;;;5.05;;
61200;SDS011;47065;52.898;6.992;2023-04-25T00:31:16;21.60;;;5.93;;
61200;SDS011;47065;52.898;6.992;2023-04-25T00:33:42;22.58;;;6.80;;
61200;SDS011;47065;52.898;6.992;2023-04-25T00:36:10;17.92;;;5.07;;
61200;SDS011;47065;52.898;6.992;2023-04-25T00:38:36;27.00;;;4.85;;
61200;SDS011;47065;52.898;6.992;2023-04-25T00:41:04;17.98;;;6.32;;
61200;SDS011;47065;52.898;6.992;2023-04-25T00:43:31;26.40;;;5.50;;
61200;SDS011;47065;52.898;6.992;2023-04-25T00:45:59;20.38;;;4.75;;
61200;SDS011;47065;52.898;6.992;2023-04-25T00:48:25;23.23;;;5.28;;
61200;SDS011;47065;52.898;6.992;2023-04-25T00:50:52;14.57;;;4.93;;
61200;SDS011;47065;52.898;6.992;2023-04-25T00:53:19;20.70;;;5.38;;
61200;SDS011;47065;52.898;6.992;2023-04-25T00:55:49;16.17;;;5.45;;
61200;SDS011;47065;52.898;6.992;2023-04-25T00:58:16;22.52;;;4.68;;
61200;SDS011;47065;52.898;6.992;2023-04-25T01:00:43;20.52;;;5.10;;
61200;SDS011;47065;52.898;6.992;2023-04-25T01:03:10;19.80;;;5.75;;
61200;SDS011;47065;52.898;6.992;2023-04-25T01:05:36;22.60;;;4.80;;
61200;SDS011;47065;52.898;6.992;2023-04-25T01:08:02;15.68;;;5.63;;
61200;SDS011;47065;52.898;6.992;2023-04-25T01:10:28;21.08;;;5.50;;
61200;SDS011;47065;52.898;6.992;2023-04-25T01:12:54;23.05;;;5.80;;
61200;SDS011;47065;52.898;6.992;2023-04-25T01:15:19;18.58;;;4.63;;
61200;SDS011;47065;52.898;6.992;2023-04-25T01:17:45;26.80;;;5.78;;
61200;SDS011;47065;52.898;6.992;2023-04-25T01:20:11;22.25;;;4.45;;
61200;SDS011;47065;52.898;6.992;2023-04-25T01:22:38;18.50;;;6.03;;
61200;SDS011;47065;52.898;6.992;2023-04-25T01:25:04;30.08;;;6.07;;
61200;SDS011;47065;52.898;6.992;2023-04-25T01:27:31;28.70;;;5.40;;
61200;SDS011;47065;52.898;6.992;2023-04-25T01:29:57;21.13;;;7.13;;
61200;SDS011;47065;52.898;6.992;2023-04-25T01:32:24;21.40;;;5.85;;
61200;SDS011;47065;52.898;6.992;2023-04-25T01:34:51;23.35;;;5.60;;
61200;SDS011;47065;52.898;6.992;2023-04-25T01:37:17;23.73;;;6.35;;
61200;SDS011;47065;52.898;6.992;2023-04-25T01:39:43;25.45;;;5.43;;
61200;SDS011;47065;52.898;6.992;2023-04-25T01:42:09;20.20;;;5.55;;
61200;SDS011;47065;52.898;6.992;2023-04-25T01:44:35;14.35;;;4.80;;
61200;SDS011;47065;52.898;6.992;2023-04-25T01:47:00;28.83;;;5.90;;
61200;SDS011;47065;52.898;6.992;2023-04-25T01:49:26;20.80;;;5.57;;
61200;SDS011;47065;52.898;6.992;2023-04-25T01:51:52;17.55;;;5.65;;
61200;SDS011;47065;52.898;6.992;2023-04-25T01:54:17;17.13;;;5.20;;
61200;SDS011;47065;52.898;6.992;2023-04-25T01:56:49;24.15;;;4.50;;
61200;SDS011;47065;52.898;6.992;2023-04-25T01:59:16;26.45;;;5.43;;
61200;SDS011;47065;52.898;6.992;2023-04-25T02:01:43;16.17;;;3.55;;
61200;SDS011;47065;52.898;6.992;2023-04-25T02:04:08;9.15;;;3.53;;
61200;SDS011;47065;52.898;6.992;2023-04-25T02:06:34;18.70;;;5.18;;
61200;SDS011;47065;52.898;6.992;2023-04-25T02:09:00;19.17;;;4.07;;
61200;SDS011;47065;52.898;6.992;2023-04-25T02:11:25;15.45;;;4.78;;
61200;SDS011;47065;52.898;6.992;2023-04-25T02:13:51;18.73;;;4.88;;
61200;SDS011;47065;52.898;6.992;2023-04-25T02:16:17;18.25;;;4.90;;
61200;SDS011;47065;52.898;6.992;2023-04-25T02:18:43;25.70;;;5.05;;
61200;SDS011;47065;52.898;6.992;2023-04-25T02:21:09;17.23;;;5.65;;
61200;SDS011;47065;52.898;6.992;2023-04-25T02:23:36;16.92;;;5.53;;
61200;SDS011;47065;52.898;6.992;2023-04-25T02:26:02;16.92;;;6.20;;
61200;SDS011;47065;52.898;6.992;2023-04-25T02:28:28;16.73;;;5.38;;
61200;SDS011;47065;52.898;6.992;2023-04-25T02:30:54;26.27;;;5.68;;
61200;SDS011;47065;52.898;6.992;2023-04-25T02:33:19;23.20;;;5.75;;
61200;SDS011;47065;52.898;6.992;2023-04-25T02:35:46;22.92;;;5.35;;
61200;SDS011;47065;52.898;6.992;2023-04-25T02:38:12;23.77;;;5.35;;
61200;SDS011;47065;52.898;6.992;2023-04-25T02:40:37;23.05;;;5.55;;
61200;SDS011;47065;52.898;6.992;2023-04-25T02:43:03;17.27;;;6.38;;
61200;SDS011;47065;52.898;6.992;2023-04-25T02:45:29;19.08;;;4.28;;
61200;SDS011;47065;52.898;6.992;2023-04-25T02:47:54;16.70;;;5.70;;
61200;SDS011;47065;52.898;6.992;2023-04-25T02:50:20;19.30;;;5.28;;
61200;SDS011;47065;52.898;6.992;2023-04-25T02:52:45;17.42;;;4.35;;
61200;SDS011;47065;52.898;6.992;2023-04-25T02:55:12;23.85;;;6.53;;
61200;SDS011;47065;52.898;6.992;2023-04-25T02:57:38;25.00;;;4.43;;
61200;SDS011;47065;52.898;6.992;2023-04-25T03:00:04;26.77;;;6.15;;
61200;SDS011;47065;52.898;6.992;2023-04-25T03:02:30;20.60;;;4.28;;
61200;SDS011;47065;52.898;6.992;2023-04-25T03:04:56;23.98;;;5.45;;
61200;SDS011;47065;52.898;6.992;2023-04-25T03:07:21;17.35;;;4.75;;
61200;SDS011;47065;52.898;6.992;2023-04-25T03:09:47;28.23;;;5.60;;
61200;SDS011;47065;52.898;6.992;2023-04-25T03:12:13;16.92;;;4.25;;
61200;SDS011;47065;52.898;6.992;2023-04-25T03:14:38;20.63;;;4.10;;
61200;SDS011;47065;52.898;6.992;2023-04-25T03:17:04;13.93;;;4.25;;
61200;SDS011;47065;52.898;6.992;2023-04-25T03:19:30;17.85;;;4.22;;
61200;SDS011;47065;52.898;6.992;2023-04-25T03:21:55;11.95;;;4.68;;
61200;SDS011;47065;52.898;6.992;2023-04-25T03:24:21;23.00;;;4.65;;
61200;SDS011;47065;52.898;6.992;2023-04-25T03:26:47;18.98;;;3.85;;
61200;SDS011;47065;52.898;6.992;2023-04-25T03:29:12;15.77;;;4.30;;
61200;SDS011;47065;52.898;6.992;2023-04-25T03:31:38;16.35;;;4.22;;
61200;SDS011;47065;52.898;6.992;2023-04-25T03:34:04;11.27;;;3.80;;
61200;SDS011;47065;52.898;6.992;2023-04-25T03:36:30;17.00;;;4.20;;
61200;SDS011;47065;52.898;6.992;2023-04-25T03:38:55;18.88;;;4.55;;
61200;SDS011;47065;52.898;6.992;2023-04-25T03:41:21;16.92;;;3.88;;
61200;SDS011;47065;52.898;6.992;2023-04-25T03:43:47;15.25;;;3.97;;
61200;SDS011;47065;52.898;6.992;2023-04-25T03:46:12;20.13;;;4.32;;
61200;SDS011;47065;52.898;6.992;2023-04-25T03:48:38;15.60;;;5.13;;
61200;SDS011;47065;52.898;6.992;2023-04-25T03:51:03;24.60;;;4.57;;
61200;SDS011;47065;52.898;6.992;2023-04-25T03:53:29;25.98;;;6.18;;
61200;SDS011;47065;52.898;6.992;2023-04-25T03:55:55;23.25;;;4.38;;
61200;SDS011;47065;52.898;6.992;2023-04-25T03:58:20;16.55;;;3.55;;
61200;SDS011;47065;52.898;6.992;2023-04-25T04:00:48;10.77;;;3.22;;
61200;SDS011;47065;52.898;6.992;2023-04-25T04:03:13;13.05;;;4.25;;
61200;SDS011;47065;52.898;6.992;2023-04-25T04:05:39;15.57;;;3.03;;
61200;SDS011;47065;52.898;6.992;2023-04-25T04:08:05;16.27;;;3.92;;
61200;SDS011;47065;52.898;6.992;2023-04-25T04:10:32;21.83;;;3.95;;
61200;SDS011;47065;52.898;6.992;2023-04-25T04:12:57;17.33;;;4.22;;
61200;SDS011;47065;52.898;6.992;2023-04-25T04:15:23;19.40;;;4.40;;
61200;SDS011;47065;52.898;6.992;2023-04-25T04:17:48;16.05;;;4.75;;
61200;SDS011;47065;52.898;6.992;2023-04-25T04:20:14;15.05;;;4.25;;
61200;SDS011;47065;52.898;6.992;2023-04-25T04:22:40;11.35;;;4.05;;
61200;SDS011;47065;52.898;6.992;2023-04-25T04:25:06;17.77;;;3.80;;
61200;SDS011;47065;52.898;6.992;2023-04-25T04:27:32;15.90;;;4.03;;
61200;SDS011;47065;52.898;6.992;2023-04-25T04:29:57;15.88;;;4.15;;
61200;SDS011;47065;52.898;6.992;2023-04-25T04:32:23;17.73;;;3.38;;
61200;SDS011;47065;52.898;6.992;2023-04-25T04:34:50;14.30;;;3.75;;
61200;SDS011;47065;52.898;6.992;2023-04-25T04:37:17;17.98;;;4.25;;
61200;SDS011;47065;52.898;6.992;2023-04-25T04:39:43;13.50;;;3.08;;
61200;SDS011;47065;52.898;6.992;2023-04-25T04:42:09;12.55;;;4.35;;
61200;SDS011;47065;52.898;6.992;2023-04-25T04:44:36;16.02;;;3.97;;
61200;SDS011;47065;52.898;6.992;2023-04-25T04:47:03;21.17;;;5.00;;
61200;SDS011;47065;52.898;6.992;2023-04-25T04:49:31;10.48;;;2.63;;
61200;SDS011;47065;52.898;6.992;2023-04-25T04:51:57;10.95;;;3.85;;
61200;SDS011;47065;52.898;6.992;2023-04-25T04:54:24;18.92;;;3.35;;
61200;SDS011;47065;52.898;6.992;2023-04-25T04:56:50;12.00;;;3.17;;
61200;SDS011;47065;52.898;6.992;2023-04-25T04:59:17;14.77;;;2.95;;
61200;SDS011;47065;52.898;6.992;2023-04-25T05:01:43;13.90;;;2.75;;
61200;SDS011;47065;52.898;6.992;2023-04-25T05:04:08;12.57;;;2.63;;
61200;SDS011;47065;52.898;6.992;2023-04-25T05:06:34;12.52;;;2.80;;
61200;SDS011;47065;52.898;6.992;2023-04-25T05:08:59;21.20;;;4.78;;
61200;SDS011;47065;52.898;6.992;2023-04-25T05:11:25;12.00;;;3.05;;
61200;SDS011;47065;52.898;6.992;2023-04-25T05:13:51;11.70;;;3.53;;
61200;SDS011;47065;52.898;6.992;2023-04-25T05:16:17;13.68;;;2.08;;
61200;SDS011;47065;52.898;6.992;2023-04-25T05:18:43;11.57;;;3.28;;
61200;SDS011;47065;52.898;6.992;2023-04-25T05:21:09;12.07;;;2.75;;
61200;SDS011;47065;52.898;6.992;2023-04-25T05:23:35;12.98;;;3.30;;
61200;SDS011;47065;52.898;6.992;2023-04-25T05:26:00;7.88;;;1.98;;
61200;SDS011;47065;52.898;6.992;2023-04-25T05:28:26;6.28;;;1.73;;
61200;SDS011;47065;52.898;6.992;2023-04-25T05:30:52;18.40;;;2.60;;
61200;SDS011;47065;52.898;6.992;2023-04-25T05:33:18;5.03;;;2.10;;
61200;SDS011;47065;52.898;6.992;2023-04-25T05:35:43;12.48;;;2.08;;
61200;SDS011;47065;52.898;6.992;2023-04-25T05:38:09;10.27;;;2.72;;
61200;SDS011;47065;52.898;6.992;2023-04-25T05:40:35;10.43;;;2.33;;
61200;SDS011;47065;52.898;6.992;2023-04-25T05:43:01;9.23;;;2.55;;
61200;SDS011;47065;52.898;6.992;2023-04-25T05:45:26;10.38;;;2.05;;
61200;SDS011;47065;52.898;6.992;2023-04-25T05:47:52;10.60;;;2.42;;
61200;SDS011;47065;52.898;6.992;2023-04-25T05:50:17;10.95;;;3.15;;
61200;SDS011;47065;52.898;6.992;2023-04-25T05:52:43;7.25;;;2.17;;
61200;SDS011;47065;52.898;6.992;2023-04-25T05:55:09;16.30;;;3.70;;
61200;SDS011;47065;52.898;6.992;2023-04-25T05:57:35;14.20;;;2.70;;
61200;SDS011;47065;52.898;6.992;2023-04-25T06:00:00;9.82;;;2.22;;
61200;SDS011;47065;52.898;6.992;2023-04-25T06:02:26;9.38;;;2.65;;
61200;SDS011;47065;52.898;6.992;2023-04-25T06:04:52;10.60;;;2.58;;
61200;SDS011;47065;52.898;6.992;2023-04-25T06:07:18;7.68;;;2.05;;
61200;SDS011;47065;52.898;6.992;2023-04-25T06:09:45;4.88;;;1.50;;
61200;SDS011;47065;52.898;6.992;2023-04-25T06:12:10;7.10;;;1.95;;
61200;SDS011;47065;52.898;6.992;2023-04-25T06:14:36;5.88;;;1.45;;
61200;SDS011;47065;52.898;6.992;2023-04-25T06:17:02;11.48;;;2.38;;
61200;SDS011;47065;52.898;6.992;2023-04-25T06:19:33;8.57;;;2.05;;
61200;SDS011;47065;52.898;6.992;2023-04-25T06:22:00;11.45;;;1.75;;
61200;SDS011;47065;52.898;6.992;2023-04-25T06:24:26;7.97;;;2.35;;
61200;SDS011;47065;52.898;6.992;2023-04-25T06:26:51;9.68;;;2.17;;
61200;SDS011;47065;52.898;6.992;2023-04-25T06:29:17;6.70;;;1.80;;
61200;SDS011;47065;52.898;6.992;2023-04-25T06:31:43;11.95;;;3.67;;
61200;SDS011;47065;52.898;6.992;2023-04-25T06:34:09;10.88;;;2.35;;
61200;SDS011;47065;52.898;6.992;2023-04-25T06:36:34;21.35;;;3.92;;
61200;SDS011;47065;52.898;6.992;2023-04-25T06:39:00;13.80;;;3.15;;
61200;SDS011;47065;52.898;6.992;2023-04-25T06:41:25;9.80;;;3.38;;
61200;SDS011;47065;52.898;6.992;2023-04-25T06:43:51;12.35;;;2.25;;
61200;SDS011;47065;52.898;6.992;2023-04-25T06:46:17;16.25;;;2.38;;
61200;SDS011;47065;52.898;6.992;2023-04-25T06:48:42;12.82;;;3.65;;
61200;SDS011;47065;52.898;6.992;2023-04-25T06:51:08;12.85;;;3.28;;
61200;SDS011;47065;52.898;6.992;2023-04-25T06:53:33;8.90;;;2.67;;
61200;SDS011;47065;52.898;6.992;2023-04-25T06:55:59;9.27;;;2.83;;
61200;SDS011;47065;52.898;6.992;2023-04-25T06:58:25;11.88;;;2.60;;
61200;SDS011;47065;52.898;6.992;2023-04-25T07:00:51;11.63;;;2.47;;
61200;SDS011;47065;52.898;6.992;2023-04-25T07:03:17;12.63;;;2.10;;
61200;SDS011;47065;52.898;6.992;2023-04-25T07:05:42;5.40;;;1.80;;
61200;SDS011;47065;52.898;6.992;2023-04-25T07:08:08;4.63;;;2.10;;
61200;SDS011;47065;52.898;6.992;2023-04-25T07:10:34;8.52;;;2.80;;
61200;SDS011;47065;52.898;6.992;2023-04-25T07:13:00;6.57;;;1.92;;
61200;SDS011;47065;52.898;6.992;2023-04-25T07:15:25;14.05;;;2.95;;
61200;SDS011;47065;52.898;6.992;2023-04-25T07:17:51;9.05;;;2.40;;
61200;SDS011;47065;52.898;6.992;2023-04-25T07:20:16;10.55;;;3.00;;
61200;SDS011;47065;52.898;6.992;2023-04-25T07:22:42;10.85;;;3.00;;
61200;SDS011;47065;52.898;6.992;2023-04-25T07:25:09;15.00;;;2.13;;
61200;SDS011;47065;52.898;6.992;2023-04-25T07:27:34;10.52;;;3.05;;
61200;SDS011;47065;52.898;6.992;2023-04-25T07:30:00;12.05;;;1.98;;
61200;SDS011;47065;52.898;6.992;2023-04-25T07:32:26;12.57;;;2.92;;
61200;SDS011;47065;52.898;6.992;2023-04-25T07:34:51;11.43;;;2.45;;
61200;SDS011;47065;52.898;6.992;2023-04-25T07:37:17;8.40;;;1.85;;
61200;SDS011;47065;52.898;6.992;2023-04-25T07:39:44;8.05;;;1.50;;
61200;SDS011;47065;52.898;6.992;2023-04-25T07:42:11;35.70;;;3.60;;
61200;SDS011;47065;52.898;6.992;2023-04-25T07:44:36;8.25;;;1.60;;
61200;SDS011;47065;52.898;6.992;2023-04-25T07:47:08;7.75;;;2.03;;
61200;SDS011;47065;52.898;6.992;2023-04-25T07:49:37;14.05;;;1.92;;
61200;SDS011;47065;52.898;6.992;2023-04-25T07:52:04;12.27;;;1.77;;
61200;SDS011;47065;52.898;6.992;2023-04-25T07:54:31;12.93;;;2.35;;
61200;SDS011;47065;52.898;6.992;2023-04-25T07:56:57;8.02;;;1.60;;
61200;SDS011;47065;52.898;6.992;2023-04-25T07:59:23;8.40;;;2.00;;
61200;SDS011;47065;52.898;6.992;2023-04-25T08:01:49;3.40;;;1.50;;
61200;SDS011;47065;52.898;6.992;2023-04-25T08:04:15;3.67;;;1.30;;
61200;SDS011;47065;52.898;6.992;2023-04-25T08:06:41;5.20;;;2.20;;
61200;SDS011;47065;52.898;6.992;2023-04-25T08:09:07;9.30;;;1.40;;
61200;SDS011;47065;52.898;6.992;2023-04-25T08:11:36;11.63;;;1.85;;
61200;SDS011;47065;52.898;6.992;2023-04-25T08:14:02;7.25;;;1.50;;
61200;SDS011;47065;52.898;6.992;2023-04-25T08:16:28;9.98;;;1.95;;
61200;SDS011;47065;52.898;6.992;2023-04-25T08:18:53;11.30;;;1.88;;
61200;SDS011;47065;52.898;6.992;2023-04-25T08:21:19;5.22;;;1.67;;
61200;SDS011;47065;52.898;6.992;2023-04-25T08:23:45;7.68;;;1.80;;
61200;SDS011;47065;52.898;6.992;2023-04-25T08:26:11;7.90;;;1.20;;
61200;SDS011;47065;52.898;6.992;2023-04-25T08:28:36;5.50;;;1.15;;
61200;SDS011;47065;52.898;6.992;2023-04-25T08:31:02;5.90;;;0.95;;
61200;SDS011;47065;52.898;6.992;2023-04-25T08:33:28;7.75;;;0.90;;
61200;SDS011;47065;52.898;6.992;2023-04-25T08:35:55;6.05;;;1.63;;
61200;SDS011;47065;52.898;6.992;2023-04-25T08:38:20;9.57;;;1.70;;
61200;SDS011;47065;52.898;6.992;2023-04-25T08:40:48;9.13;;;1.20;;
61200;SDS011;47065;52.898;6.992;2023-04-25T08:43:18;9.80;;;1.67;;
61200;SDS011;47065;52.898;6.992;2023-04-25T08:45:45;7.32;;;2.13;;
61200;SDS011;47065;52.898;6.992;2023-04-25T08:48:15;7.38;;;1.33;;
61200;SDS011;47065;52.898;6.992;2023-04-25T08:50:45;7.20;;;1.17;;
61200;SDS011;47065;52.898;6.992;2023-04-25T08:53:21;10.63;;;1.92;;
61200;SDS011;47065;52.898;6.992;2023-04-25T08:55:50;7.95;;;1.92;;
61200;SDS011;47065;52.898;6.992;2023-04-25T08:58:18;6.20;;;1.55;;
61200;SDS011;47065;52.898;6.992;2023-04-25T09:00:46;2.60;;;1.08;;
61200;SDS011;47065;52.898;6.992;2023-04-25T09:03:12;5.25;;;1.45;;
61200;SDS011;47065;52.898;6.992;2023-04-25T09:05:39;8.10;;;1.60;;
61200;SDS011;47065;52.898;6.992;2023-04-25T09:08:05;6.50;;;1.40;;
61200;SDS011;47065;52.898;6.992;2023-04-25T09:10:31;5.65;;;1.23;;
61200;SDS011;47065;52.898;6.992;2023-04-25T09:13:07;4.32;;;1.77;;
61200;SDS011;47065;52.898;6.992;2023-04-25T09:15:48;6.70;;;1.75;;
61200;SDS011;47065;52.898;6.992;2023-04-25T09:18:31;4.22;;;1.27;;
61200;SDS011;47065;52.898;6.992;2023-04-25T09:21:05;5.55;;;0.90;;
61200;SDS011;47065;52.898;6.992;2023-04-25T09:23:39;2.15;;;1.00;;
61200;SDS011;47065;52.898;6.992;2023-04-25T09:26:07;3.72;;;0.85;;
61200;SDS011;47065;52.898;6.992;2023-04-25T09:28:34;2.88;;;1.30;;
61200;SDS011;47065;52.898;6.992;2023-04-25T09:31:00;7.15;;;0.93;;
61200;SDS011;47065;52.898;6.992;2023-04-25T09:33:33;5.00;;;1.02;;
61200;SDS011;47065;52.898;6.992;2023-04-25T09:36:03;3.58;;;0.75;;
61200;SDS011;47065;52.898;6.992;2023-04-25T09:38:31;3.67;;;0.88;;
61200;SDS011;47065;52.898;6.992;2023-04-25T09:40:57;4.05;;;1.08;;
61200;SDS011;47065;52.898;6.992;2023-04-25T09:43:24;7.38;;;0.93;;
61200;SDS011;47065;52.898;6.992;2023-04-25T09:45:50;3.90;;;2.45;;
61200;SDS011;47065;52.898;6.992;2023-04-25T09:48:18;4.95;;;1.42;;
61200;SDS011;47065;52.898;6.992;2023-04-25T09:50:45;1.85;;;0.70;;
61200;SDS011;47065;52.898;6.992;2023-04-25T09:53:30;3.40;;;0.90;;
61200;SDS011;47065;52.898;6.992;2023-04-25T09:55:59;5.13;;;1.20;;
61200;SDS011;47065;52.898;6.992;2023-04-25T09:58:28;3.13;;;1.08;;
61200;SDS011;47065;52.898;6.992;2023-04-25T10:00:55;5.85;;;1.52;;
61200;SDS011;47065;52.898;6.992;2023-04-25T10:03:29;2.63;;;0.90;;
61200;SDS011;47065;52.898;6.992;2023-04-25T10:05:58;4.80;;;1.42;;
61200;SDS011;47065;52.898;6.992;2023-04-25T10:08:25;2.35;;;1.13;;
61200;SDS011;47065;52.898;6.992;2023-04-25T10:10:58;8.63;;;1.45;;
61200;SDS011;47065;52.898;6.992;2023-04-25T10:13:31;6.82;;;1.30;;
61200;SDS011;47065;52.898;6.992;2023-04-25T10:15:58;7.93;;;1.83;;
61200;SDS011;47065;52.898;6.992;2023-04-25T10:18:26;2.13;;;0.85;;
61200;SDS011;47065;52.898;6.992;2023-04-25T10:21:00;5.22;;;1.50;;
61200;SDS011;47065;52.898;6.992;2023-04-25T10:23:27;2.60;;;1.30;;
61200;SDS011;47065;52.898;6.992;2023-04-25T10:25:55;5.47;;;1.00;;
61200;SDS011;47065;52.898;6.992;2023-04-25T10:28:21;3.88;;;1.33;;
61200;SDS011;47065;52.898;6.992;2023-04-25T10:30:56;5.75;;;1.58;;
61200;SDS011;47065;52.898;6.992;2023-04-25T10:33:32;5.40;;;0.80;;
61200;SDS011;47065;52.898;6.992;2023-04-25T10:36:21;6.50;;;0.90;;
61200;SDS011;47065;52.898;6.992;2023-04-25T10:38:48;1.90;;;0.90;;
61200;SDS011;47065;52.898;6.992;2023-04-25T10:41:18;6.95;;;2.40;;
61200;SDS011;47065;52.898;6.992;2023-04-25T10:43:49;4.63;;;1.10;;
61200;SDS011;47065;52.898;6.992;2023-04-25T10:46:29;4.38;;;1.00;;
61200;SDS011;47065;52.898;6.992;2023-04-25T10:48:56;6.07;;;1.30;;
61200;SDS011;47065;52.898;6.992;2023-04-25T10:51:31;7.10;;;1.65;;
61200;SDS011;47065;52.898;6.992;2023-04-25T10:54:04;3.70;;;1.30;;
61200;SDS011;47065;52.898;6.992;2023-04-25T10:56:32;4.97;;;1.45;;
61200;SDS011;47065;52.898;6.992;2023-04-25T10:59:17;4.68;;;1.15;;
61200;SDS011;47065;52.898;6.992;2023-04-25T11:01:48;6.45;;;1.02;;
61200;SDS011;47065;52.898;6.992;2023-04-25T11:09:25;4.63;;;1.23;;
61200;SDS011;47065;52.898;6.992;2023-04-25T11:11:55;7.82;;;1.60;;
61200;SDS011;47065;52.898;6.992;2023-04-25T11:14:21;7.28;;;1.55;;
61200;SDS011;47065;52.898;6.992;2023-04-25T11:16:47;7.40;;;1.27;;
61200;SDS011;47065;52.898;6.992;2023-04-25T11:19:23;6.10;;;1.20;;
61200;SDS011;47065;52.898;6.992;2023-04-25T11:21:49;6.20;;;1.85;;
61200;SDS011;47065;52.898;6.992;2023-04-25T11:24:16;4.63;;;1.58;;
61200;SDS011;47065;52.898;6.992;2023-04-25T11:26:42;4.70;;;1.52;;
61200;SDS011;47065;52.898;6.992;2023-04-25T11:29:08;4.07;;;1.17;;
61200;SDS011;47065;52.898;6.992;2023-04-25T11:31:34;4.80;;;1.85;;
61200;SDS011;47065;52.898;6.992;2023-04-25T11:33:59;13.63;;;3.30;;
61200;SDS011;47065;52.898;6.992;2023-04-25T11:36:25;10.68;;;1.73;;
61200;SDS011;47065;52.898;6.992;2023-04-25T11:38:52;5.47;;;1.88;;
61200;SDS011;47065;52.898;6.992;2023-04-25T11:41:21;5.25;;;1.73;;
61200;SDS011;47065;52.898;6.992;2023-04-25T11:43:47;9.23;;;1.50;;
61200;SDS011;47065;52.898;6.992;2023-04-25T11:46:13;5.40;;;1.50;;
61200;SDS011;47065;52.898;6.992;2023-04-25T11:48:40;5.05;;;1.70;;
61200;SDS011;47065;52.898;6.992;2023-04-25T11:51:06;12.45;;;2.13;;
61200;SDS011;47065;52.898;6.992;2023-04-25T11:53:32;6.97;;;1.50;;
61200;SDS011;47065;52.898;6.992;2023-04-25T11:55:59;12.07;;;2.75;;
61200;SDS011;47065;52.898;6.992;2023-04-25T11:58:25;6.90;;;2.00;;
61200;SDS011;47065;52.898;6.992;2023-04-25T12:00:52;6.07;;;1.30;;
61200;SDS011;47065;52.898;6.992;2023-04-25T12:03:18;6.55;;;1.63;;
61200;SDS011;47065;52.898;6.992;2023-04-25T12:05:44;6.97;;;2.08;;
61200;SDS011;47065;52.898;6.992;2023-04-25T12:08:11;3.63;;;0.98;;
61200;SDS011;47065;52.898;6.992;2023-04-25T12:10:39;4.32;;;0.85;;
61200;SDS011;47065;52.898;6.992;2023-04-25T12:13:22;4.03;;;0.80;;
61200;SDS011;47065;52.898;6.992;2023-04-25T12:15:49;6.78;;;1.08;;
61200;SDS011;47065;52.898;6.992;2023-04-25T12:18:18;4.45;;;0.90;;
61200;SDS011;47065;52.898;6.992;2023-04-25T12:20:44;8.00;;;1.13;;
61200;SDS011;47065;52.898;6.992;2023-04-25T12:23:10;9.07;;;1.50;;
61200;SDS011;47065;52.898;6.992;2023-04-25T12:25:40;5.45;;;1.20;;
61200;SDS011;47065;52.898;6.992;2023-04-25T12:28:11;4.60;;;1.65;;
61200;SDS011;47065;52.898;6.992;2023-04-25T12:31:00;8.07;;;1.80;;
61200;SDS011;47065;52.898;6.992;2023-04-25T12:33:34;6.90;;;1.60;;
61200;SDS011;47065;52.898;6.992;2023-04-25T12:36:01;5.28;;;2.08;;
61200;SDS011;47065;52.898;6.992;2023-04-25T12:38:38;8.82;;;2.70;;
61200;SDS011;47065;52.898;6.992;2023-04-25T12:41:05;4.78;;;1.40;;
61200;SDS011;47065;52.898;6.992;2023-04-25T12:43:31;6.13;;;1.70;;
61200;SDS011;47065;52.898;6.992;2023-04-25T12:45:57;5.95;;;1.42;;
61200;SDS011;47065;52.898;6.992;2023-04-25T12:48:23;4.65;;;1.08;;
61200;SDS011;47065;52.898;6.992;2023-04-25T12:50:49;6.22;;;1.42;;
61200;SDS011;47065;52.898;6.992;2023-04-25T12:53:17;5.10;;;1.20;;
61200;SDS011;47065;52.898;6.992;2023-04-25T12:55:43;1.83;;;0.65;;
61200;SDS011;47065;52.898;6.992;2023-04-25T12:58:12;3.92;;;1.63;;
61200;SDS011;47065;52.898;6.992;2023-04-25T13:00:38;3.60;;;0.90;;
61200;SDS011;47065;52.898;6.992;2023-04-25T13:03:03;3.20;;;0.73;;
61200;SDS011;47065;52.898;6.992;2023-04-25T13:05:29;5.25;;;1.40;;
61200;SDS011;47065;52.898;6.992;2023-04-25T13:07:55;7.25;;;1.40;;
61200;SDS011;47065;52.898;6.992;2023-04-25T13:10:21;4.22;;;1.55;;
61200;SDS011;47065;52.898;6.992;2023-04-25T13:12:47;4.72;;;3.08;;
61200;SDS011;47065;52.898;6.992;2023-04-25T13:15:12;6.43;;;1.92;;
61200;SDS011;47065;52.898;6.992;2023-04-25T13:17:40;7.22;;;1.20;;
61200;SDS011;47065;52.898;6.992;2023-04-25T13:20:06;7.72;;;0.90;;
61200;SDS011;47065;52.898;6.992;2023-04-25T13:22:37;4.53;;;1.27;;
61200;SDS011;47065;52.898;6.992;2023-04-25T13:25:04;9.38;;;1.75;;
61200;SDS011;47065;52.898;6.992;2023-04-25T13:27:31;4.15;;;1.52;;
61200;SDS011;47065;52.898;6.992;2023-04-25T13:29:59;5.22;;;1.65;;
61200;SDS011;47065;52.898;6.992;2023-04-25T13:32:26;7.05;;;1.20;;
61200;SDS011;47065;52.898;6.992;2023-04-25T13:34:52;5.45;;;1.20;;
61200;SDS011;47065;52.898;6.992;2023-04-25T13:37:18;5.32;;;2.10;;
61200;SDS011;47065;52.898;6.992;2023-04-25T13:39:44;9.27;;;2.17;;
61200;SDS011;47065;52.898;6.992;2023-04-25T13:42:10;4.03;;;1.10;;
61200;SDS011;47065;52.898;6.992;2023-04-25T13:44:36;5.30;;;0.90;;
61200;SDS011;47065;52.898;6.992;2023-04-25T13:47:02;5.32;;;0.85;;
61200;SDS011;47065;52.898;6.992;2023-04-25T13:49:27;6.90;;;1.27;;
61200;SDS011;47065;52.898;6.992;2023-04-25T13:51:53;3.53;;;1.30;;
61200;SDS011;47065;52.898;6.992;2023-04-25T13:54:19;5.78;;;1.42;;
61200;SDS011;47065;52.898;6.992;2023-04-25T13:56:44;7.90;;;1.45;;
61200;SDS011;47065;52.898;6.992;2023-04-25T13:59:10;4.25;;;1.10;;
61200;SDS011;47065;52.898;6.992;2023-04-25T14:01:36;8.55;;;1.27;;
61200;SDS011;47065;52.898;6.992;2023-04-25T14:04:02;5.07;;;1.80;;
61200;SDS011;47065;52.898;6.992;2023-04-25T14:06:31;5.80;;;1.60;;
61200;SDS011;47065;52.898;6.992;2023-04-25T14:08:57;4.32;;;1.35;;
61200;SDS011;47065;52.898;6.992;2023-04-25T14:11:22;10.18;;;1.80;;
61200;SDS011;47065;52.898;6.992;2023-04-25T14:13:48;5.75;;;1.20;;
61200;SDS011;47065;52.898;6.992;2023-04-25T14:16:14;3.75;;;1.23;;
61200;SDS011;47065;52.898;6.992;2023-04-25T14:18:40;4.13;;;1.55;;
61200;SDS011;47065;52.898;6.992;2023-04-25T14:21:06;7.18;;;1.48;;
61200;SDS011;47065;52.898;6.992;2023-04-25T14:23:32;5.63;;;1.17;;
61200;SDS011;47065;52.898;6.992;2023-04-25T14:25:57;6.55;;;1.50;;
61200;SDS011;47065;52.898;6.992;2023-04-25T14:28:23;5.95;;;1.73;;
61200;SDS011;47065;52.898;6.992;2023-04-25T14:30:49;6.00;;;1.10;;
61200;SDS011;47065;52.898;6.992;2023-04-25T14:33:14;4.60;;;1.27;;
61200;SDS011;47065;52.898;6.992;2023-04-25T14:35:40;5.07;;;1.45;;
61200;SDS011;47065;52.898;6.992;2023-04-25T14:38:06;4.13;;;1.15;;
61200;SDS011;47065;52.898;6.992;2023-04-25T14:40:33;8.18;;;1.38;;
61200;SDS011;47065;52.898;6.992;2023-04-25T14:42:58;7.40;;;1.75;;
61200;SDS011;47065;52.898;6.992;2023-04-25T14:45:24;4.43;;;1.10;;